sensor_id;sensor_type;location;lat;lon;timestamp;P1;durP1;ratioP1;P2;durP2;ratioP2
12118;SDS011;6123;48.864;9.200;2022-11-15T00:01:09;3.80;;;3.50;;
12118;SDS011;6123;48.864;9.200;2022-11-15T00:03:43;3.47;;;3.17;;
12118;SDS011;6123;48.864;9.200;2022-11-15T00:06:09;4.65;;;3.40;;
12118;SDS011;6123;48.864;9.200;2022-11-15T00:08:37;3.70;;;3.40;;
12118;SDS011;6123;48.864;9.200;2022-11-15T00:11:03;3.20;;;3.00;;
12118;SDS011;6123;48.864;9.200;2022-11-15T00:13:29;4.03;;;3.60;;
12118;SDS011;6123;48.864;9.200;2022-11-15T00:15:58;5.63;;;3.38;;
12118;SDS011;6123;48.864;9.200;2022-11-15T00:18:25;3.78;;;2.97;;
12118;SDS011;6123;48.864;9.200;2022-11-15T00:20:51;3.78;;;3.20;;
12118;SDS011;6123;48.864;9.200;2022-11-15T00:23:19;3.63;;;3.17;;
12118;SDS011;6123;48.864;9.200;2022-11-15T00:25:47;3.08;;;2.88;;
12118;SDS011;6123;48.864;9.200;2022-11-15T00:28:19;3.92;;;2.80;;
12118;SDS011;6123;48.864;9.200;2022-11-15T00:30:47;3.78;;;2.65;;
12118;SDS011;6123;48.864;9.200;2022-11-15T00:33:13;3.05;;;2.85;;
12118;SDS011;6123;48.864;9.200;2022-11-15T00:35:38;3.88;;;3.20;;
12118;SDS011;6123;48.864;9.200;2022-11-15T00:38:06;3.17;;;2.88;;
12118;SDS011;6123;48.864;9.200;2022-11-15T00:40:32;3.25;;;2.95;;
12118;SDS011;6123;48.864;9.200;2022-11-15T00:42:58;3.95;;;2.85;;
12118;SDS011;6123;48.864;9.200;2022-11-15T00:45:23;3.78;;;3.08;;
12118;SDS011;6123;48.864;9.200;2022-11-15T00:47:50;3.53;;;3.20;;
12118;SDS011;6123;48.864;9.200;2022-11-15T00:50:18;3.50;;;2.90;;
12118;SDS011;6123;48.864;9.200;2022-11-15T00:52:44;4.07;;;3.17;;
12118;SDS011;6123;48.864;9.200;2022-11-15T00:55:16;3.75;;;3.17;;
12118;SDS011;6123;48.864;9.200;2022-11-15T00:57:42;3.20;;;2.90;;
12118;SDS011;6123;48.864;9.200;2022-11-15T01:00:11;3.50;;;2.70;;
12118;SDS011;6123;48.864;9.200;2022-11-15T01:02:39;5.25;;;2.70;;
12118;SDS011;6123;48.864;9.200;2022-11-15T01:05:05;3.15;;;2.85;;
12118;SDS011;6123;48.864;9.200;2022-11-15T01:07:31;3.45;;;3.13;;
12118;SDS011;6123;48.864;9.200;2022-11-15T01:09:57;3.45;;;3.10;;
12118;SDS011;6123;48.864;9.200;2022-11-15T01:12:22;5.05;;;2.78;;
12118;SDS011;6123;48.864;9.200;2022-11-15T01:14:49;3.40;;;3.10;;
12118;SDS011;6123;48.864;9.200;2022-11-15T01:17:14;4.03;;;2.85;;
12118;SDS011;6123;48.864;9.200;2022-11-15T01:19:40;3.58;;;3.28;;
12118;SDS011;6123;48.864;9.200;2022-11-15T01:22:06;3.80;;;3.17;;
12118;SDS011;6123;48.864;9.200;2022-11-15T01:24:31;4.40;;;3.25;;
12118;SDS011;6123;48.864;9.200;2022-11-15T01:26:57;3.78;;;2.90;;
12118;SDS011;6123;48.864;9.200;2022-11-15T01:29:25;3.83;;;3.10;;
12118;SDS011;6123;48.864;9.200;2022-11-15T01:31:52;3.33;;;3.03;;
12118;SDS011;6123;48.864;9.200;2022-11-15T01:34:18;3.40;;;3.10;;
12118;SDS011;6123;48.864;9.200;2022-11-15T01:36:47;3.72;;;3.05;;
12118;SDS011;6123;48.864;9.200;2022-11-15T01:39:12;6.70;;;3.42;;
12118;SDS011;6123;48.864;9.200;2022-11-15T01:41:38;3.55;;;3.25;;
12118;SDS011;6123;48.864;9.200;2022-11-15T01:47:05;3.72;;;3.42;;
12118;SDS011;6123;48.864;9.200;2022-11-15T01:49:37;4.93;;;3.35;;
12118;SDS011;6123;48.864;9.200;2022-11-15T01:52:07;5.93;;;3.42;;
12118;SDS011;6123;48.864;9.200;2022-11-15T01:54:36;3.58;;;3.25;;
12118;SDS011;6123;48.864;9.200;2022-11-15T01:57:04;3.78;;;3.38;;
12118;SDS011;6123;48.864;9.200;2022-11-15T01:59:33;4.57;;;3.85;;
12118;SDS011;6123;48.864;9.200;2022-11-15T02:02:00;3.30;;;2.95;;
12118;SDS011;6123;48.864;9.200;2022-11-15T02:04:27;3.20;;;2.88;;
12118;SDS011;6123;48.864;9.200;2022-11-15T02:06:54;4.07;;;3.60;;
12118;SDS011;6123;48.864;9.200;2022-11-15T02:09:22;4.88;;;3.22;;
12118;SDS011;6123;48.864;9.200;2022-11-15T02:11:47;3.35;;;2.45;;
12118;SDS011;6123;48.864;9.200;2022-11-15T02:14:18;2.63;;;2.40;;
12118;SDS011;6123;48.864;9.200;2022-11-15T02:23:07;3.58;;;2.13;;
12118;SDS011;6123;48.864;9.200;2022-11-15T02:34:24;2.15;;;1.95;;
12118;SDS011;6123;48.864;9.200;2022-11-15T02:37:09;3.90;;;2.42;;
12118;SDS011;6123;48.864;9.200;2022-11-15T02:39:55;2.20;;;2.10;;
12118;SDS011;6123;48.864;9.200;2022-11-15T02:42:26;3.97;;;2.58;;
12118;SDS011;6123;48.864;9.200;2022-11-15T02:45:17;2.65;;;2.15;;
12118;SDS011;6123;48.864;9.200;2022-11-15T02:48:03;3.40;;;2.63;;
12118;SDS011;6123;48.864;9.200;2022-11-15T02:50:30;4.00;;;2.75;;
12118;SDS011;6123;48.864;9.200;2022-11-15T02:52:59;4.45;;;3.10;;
12118;SDS011;6123;48.864;9.200;2022-11-15T02:57:59;3.17;;;2.80;;
12118;SDS011;6123;48.864;9.200;2022-11-15T03:00:43;3.30;;;3.00;;
12118;SDS011;6123;48.864;9.200;2022-11-15T03:06:09;4.72;;;4.22;;
12118;SDS011;6123;48.864;9.200;2022-11-15T03:08:40;7.10;;;4.10;;
12118;SDS011;6123;48.864;9.200;2022-11-15T03:19:52;5.40;;;4.82;;
12118;SDS011;6123;48.864;9.200;2022-11-15T03:22:21;5.82;;;4.47;;
12118;SDS011;6123;48.864;9.200;2022-11-15T03:24:53;5.78;;;4.72;;
12118;SDS011;6123;48.864;9.200;2022-11-15T03:27:23;5.65;;;5.15;;
12118;SDS011;6123;48.864;9.200;2022-11-15T03:29:56;4.72;;;4.20;;
12118;SDS011;6123;48.864;9.200;2022-11-15T03:32:26;5.10;;;4.60;;
12118;SDS011;6123;48.864;9.200;2022-11-15T03:37:20;7.75;;;5.07;;
12118;SDS011;6123;48.864;9.200;2022-11-15T03:39:49;5.13;;;4.63;;
12118;SDS011;6123;48.864;9.200;2022-11-15T03:42:22;6.72;;;5.50;;
12118;SDS011;6123;48.864;9.200;2022-11-15T03:45:01;6.47;;;5.63;;
12118;SDS011;6123;48.864;9.200;2022-11-15T03:47:51;6.13;;;5.03;;
12118;SDS011;6123;48.864;9.200;2022-11-15T03:50:30;4.95;;;4.45;;
12118;SDS011;6123;48.864;9.200;2022-11-15T03:52:56;6.25;;;5.35;;
12118;SDS011;6123;48.864;9.200;2022-11-15T03:55:22;4.97;;;4.57;;
12118;SDS011;6123;48.864;9.200;2022-11-15T03:57:50;5.20;;;4.70;;
12118;SDS011;6123;48.864;9.200;2022-11-15T04:00:17;6.78;;;5.25;;
12118;SDS011;6123;48.864;9.200;2022-11-15T04:02:43;5.10;;;4.57;;
12118;SDS011;6123;48.864;9.200;2022-11-15T04:05:09;6.13;;;4.70;;
12118;SDS011;6123;48.864;9.200;2022-11-15T04:07:34;7.15;;;5.43;;
12118;SDS011;6123;48.864;9.200;2022-11-15T04:10:00;5.65;;;4.57;;
12118;SDS011;6123;48.864;9.200;2022-11-15T04:12:35;5.65;;;5.15;;
12118;SDS011;6123;48.864;9.200;2022-11-15T04:15:06;8.15;;;5.30;;
12118;SDS011;6123;48.864;9.200;2022-11-15T04:20:07;6.13;;;5.53;;
12118;SDS011;6123;48.864;9.200;2022-11-15T04:22:58;6.43;;;5.75;;
12118;SDS011;6123;48.864;9.200;2022-11-15T04:25:53;5.63;;;5.07;;
12118;SDS011;6123;48.864;9.200;2022-11-15T04:28:21;6.38;;;5.78;;
12118;SDS011;6123;48.864;9.200;2022-11-15T04:30:49;5.80;;;5.30;;
12118;SDS011;6123;48.864;9.200;2022-11-15T04:33:15;5.95;;;5.45;;
12118;SDS011;6123;48.864;9.200;2022-11-15T04:35:45;5.82;;;5.22;;
12118;SDS011;6123;48.864;9.200;2022-11-15T04:38:31;5.70;;;4.82;;
12118;SDS011;6123;48.864;9.200;2022-11-15T04:40:57;7.60;;;5.00;;
12118;SDS011;6123;48.864;9.200;2022-11-15T04:43:25;6.78;;;5.07;;
12118;SDS011;6123;48.864;9.200;2022-11-15T04:45:50;5.30;;;4.80;;
12118;SDS011;6123;48.864;9.200;2022-11-15T04:48:16;5.38;;;4.72;;
12118;SDS011;6123;48.864;9.200;2022-11-15T04:50:42;5.60;;;4.78;;
12118;SDS011;6123;48.864;9.200;2022-11-15T04:53:10;5.28;;;4.35;;
12118;SDS011;6123;48.864;9.200;2022-11-15T04:55:35;5.82;;;4.72;;
12118;SDS011;6123;48.864;9.200;2022-11-15T04:58:01;6.30;;;4.80;;
12118;SDS011;6123;48.864;9.200;2022-11-15T05:00:28;5.28;;;4.72;;
12118;SDS011;6123;48.864;9.200;2022-11-15T05:02:54;4.93;;;4.53;;
12118;SDS011;6123;48.864;9.200;2022-11-15T05:05:39;5.05;;;4.55;;
12118;SDS011;6123;48.864;9.200;2022-11-15T05:08:07;6.20;;;4.60;;
12118;SDS011;6123;48.864;9.200;2022-11-15T05:10:33;5.05;;;4.45;;
12118;SDS011;6123;48.864;9.200;2022-11-15T05:13:01;5.40;;;4.90;;
12118;SDS011;6123;48.864;9.200;2022-11-15T05:15:29;5.97;;;4.88;;
12118;SDS011;6123;48.864;9.200;2022-11-15T05:17:58;6.35;;;4.70;;
12118;SDS011;6123;48.864;9.200;2022-11-15T05:20:25;5.82;;;4.32;;
12118;SDS011;6123;48.864;9.200;2022-11-15T05:22:53;5.55;;;4.10;;
12118;SDS011;6123;48.864;9.200;2022-11-15T05:25:20;6.05;;;4.25;;
12118;SDS011;6123;48.864;9.200;2022-11-15T05:27:46;5.07;;;4.22;;
12118;SDS011;6123;48.864;9.200;2022-11-15T05:30:12;4.63;;;4.10;;
12118;SDS011;6123;48.864;9.200;2022-11-15T05:32:38;5.68;;;4.40;;
12118;SDS011;6123;48.864;9.200;2022-11-15T05:35:04;4.60;;;4.18;;
12118;SDS011;6123;48.864;9.200;2022-11-15T05:37:34;6.55;;;4.63;;
12118;SDS011;6123;48.864;9.200;2022-11-15T05:40:00;4.25;;;3.88;;
12118;SDS011;6123;48.864;9.200;2022-11-15T05:42:26;5.38;;;4.60;;
12118;SDS011;6123;48.864;9.200;2022-11-15T05:44:52;6.40;;;4.45;;
12118;SDS011;6123;48.864;9.200;2022-11-15T05:47:22;6.80;;;4.72;;
12118;SDS011;6123;48.864;9.200;2022-11-15T05:49:52;5.35;;;4.85;;
12118;SDS011;6123;48.864;9.200;2022-11-15T05:52:20;4.82;;;4.40;;
12118;SDS011;6123;48.864;9.200;2022-11-15T05:54:48;6.07;;;5.03;;
12118;SDS011;6123;48.864;9.200;2022-11-15T05:57:15;5.63;;;5.03;;
12118;SDS011;6123;48.864;9.200;2022-11-15T05:59:40;6.03;;;5.47;;
12118;SDS011;6123;48.864;9.200;2022-11-15T06:02:08;5.70;;;5.20;;
12118;SDS011;6123;48.864;9.200;2022-11-15T06:04:36;5.38;;;4.88;;
12118;SDS011;6123;48.864;9.200;2022-11-15T06:07:04;5.47;;;4.97;;
12118;SDS011;6123;48.864;9.200;2022-11-15T06:09:30;6.53;;;5.68;;
12118;SDS011;6123;48.864;9.200;2022-11-15T06:11:58;5.47;;;4.97;;
12118;SDS011;6123;48.864;9.200;2022-11-15T06:14:26;5.63;;;4.90;;
12118;SDS011;6123;48.864;9.200;2022-11-15T06:16:51;8.20;;;5.70;;
12118;SDS011;6123;48.864;9.200;2022-11-15T06:19:19;6.60;;;5.60;;
12118;SDS011;6123;48.864;9.200;2022-11-15T06:21:45;6.07;;;4.85;;
12118;SDS011;6123;48.864;9.200;2022-11-15T06:24:10;7.60;;;4.82;;
12118;SDS011;6123;48.864;9.200;2022-11-15T06:26:38;6.32;;;4.65;;
12118;SDS011;6123;48.864;9.200;2022-11-15T06:29:04;5.63;;;4.53;;
12118;SDS011;6123;48.864;9.200;2022-11-15T06:31:30;4.90;;;4.45;;
12118;SDS011;6123;48.864;9.200;2022-11-15T06:33:58;5.57;;;4.47;;
12118;SDS011;6123;48.864;9.200;2022-11-15T06:36:26;7.93;;;4.68;;
12118;SDS011;6123;48.864;9.200;2022-11-15T06:38:52;5.00;;;4.50;;
12118;SDS011;6123;48.864;9.200;2022-11-15T06:41:20;6.22;;;4.82;;
12118;SDS011;6123;48.864;9.200;2022-11-15T06:43:48;5.75;;;4.43;;
12118;SDS011;6123;48.864;9.200;2022-11-15T06:46:15;6.07;;;5.00;;
12118;SDS011;6123;48.864;9.200;2022-11-15T06:48:41;6.70;;;4.55;;
12118;SDS011;6123;48.864;9.200;2022-11-15T06:51:06;5.32;;;4.35;;
12118;SDS011;6123;48.864;9.200;2022-11-15T06:53:33;5.65;;;4.93;;
12118;SDS011;6123;48.864;9.200;2022-11-15T06:56:01;5.10;;;4.60;;
12118;SDS011;6123;48.864;9.200;2022-11-15T06:58:31;5.13;;;4.35;;
12118;SDS011;6123;48.864;9.200;2022-11-15T07:00:58;5.00;;;4.25;;
12118;SDS011;6123;48.864;9.200;2022-11-15T07:03:28;6.38;;;4.95;;
12118;SDS011;6123;48.864;9.200;2022-11-15T07:05:54;5.45;;;4.95;;
12118;SDS011;6123;48.864;9.200;2022-11-15T07:08:22;4.68;;;4.28;;
12118;SDS011;6123;48.864;9.200;2022-11-15T07:10:48;5.28;;;4.50;;
12118;SDS011;6123;48.864;9.200;2022-11-15T07:13:14;5.10;;;4.68;;
12118;SDS011;6123;48.864;9.200;2022-11-15T07:15:40;5.30;;;4.50;;
12118;SDS011;6123;48.864;9.200;2022-11-15T07:18:05;6.55;;;4.75;;
12118;SDS011;6123;48.864;9.200;2022-11-15T07:20:33;6.30;;;4.53;;
12118;SDS011;6123;48.864;9.200;2022-11-15T07:23:00;7.10;;;4.50;;
12118;SDS011;6123;48.864;9.200;2022-11-15T07:25:29;5.03;;;4.18;;
12118;SDS011;6123;48.864;9.200;2022-11-15T07:27:56;5.03;;;4.28;;
12118;SDS011;6123;48.864;9.200;2022-11-15T07:30:22;6.22;;;5.13;;
12118;SDS011;6123;48.864;9.200;2022-11-15T07:32:54;6.18;;;4.85;;
12118;SDS011;6123;48.864;9.200;2022-11-15T07:35:20;4.97;;;4.40;;
12118;SDS011;6123;48.864;9.200;2022-11-15T07:37:53;6.22;;;4.63;;
12118;SDS011;6123;48.864;9.200;2022-11-15T07:40:21;5.97;;;4.65;;
12118;SDS011;6123;48.864;9.200;2022-11-15T07:42:47;5.57;;;4.85;;
12118;SDS011;6123;48.864;9.200;2022-11-15T07:45:22;5.68;;;5.07;;
12118;SDS011;6123;48.864;9.200;2022-11-15T07:47:51;5.70;;;4.95;;
12118;SDS011;6123;48.864;9.200;2022-11-15T07:50:17;5.40;;;4.28;;
12118;SDS011;6123;48.864;9.200;2022-11-15T07:52:46;6.47;;;5.22;;
12118;SDS011;6123;48.864;9.200;2022-11-15T07:55:14;6.68;;;5.18;;
12118;SDS011;6123;48.864;9.200;2022-11-15T07:57:42;6.03;;;4.85;;
12118;SDS011;6123;48.864;9.200;2022-11-15T08:00:08;5.47;;;4.70;;
12118;SDS011;6123;48.864;9.200;2022-11-15T08:02:34;4.68;;;4.20;;
12118;SDS011;6123;48.864;9.200;2022-11-15T08:04:59;4.53;;;4.13;;
12118;SDS011;6123;48.864;9.200;2022-11-15T08:07:26;4.90;;;4.40;;
12118;SDS011;6123;48.864;9.200;2022-11-15T08:09:56;9.65;;;4.53;;
12118;SDS011;6123;48.864;9.200;2022-11-15T08:12:26;5.78;;;4.20;;
12118;SDS011;6123;48.864;9.200;2022-11-15T08:14:55;5.80;;;4.57;;
12118;SDS011;6123;48.864;9.200;2022-11-15T08:17:21;6.20;;;4.13;;
12118;SDS011;6123;48.864;9.200;2022-11-15T08:19:50;5.57;;;4.80;;
12118;SDS011;6123;48.864;9.200;2022-11-15T08:22:16;5.40;;;4.40;;
12118;SDS011;6123;48.864;9.200;2022-11-15T08:24:43;5.07;;;4.35;;
12118;SDS011;6123;48.864;9.200;2022-11-15T08:27:09;6.03;;;4.43;;
12118;SDS011;6123;48.864;9.200;2022-11-15T08:29:43;5.85;;;4.53;;
12118;SDS011;6123;48.864;9.200;2022-11-15T08:32:09;5.25;;;4.50;;
12118;SDS011;6123;48.864;9.200;2022-11-15T08:34:36;4.53;;;4.13;;
12118;SDS011;6123;48.864;9.200;2022-11-15T08:37:03;5.15;;;4.43;;
12118;SDS011;6123;48.864;9.200;2022-11-15T08:39:32;5.30;;;4.20;;
12118;SDS011;6123;48.864;9.200;2022-11-15T08:42:00;5.10;;;4.10;;
12118;SDS011;6123;48.864;9.200;2022-11-15T08:44:26;5.38;;;4.40;;
12118;SDS011;6123;48.864;9.200;2022-11-15T08:46:53;4.63;;;4.20;;
12118;SDS011;6123;48.864;9.200;2022-11-15T08:49:21;5.72;;;3.90;;
12118;SDS011;6123;48.864;9.200;2022-11-15T08:51:47;7.20;;;4.07;;
12118;SDS011;6123;48.864;9.200;2022-11-15T08:54:13;5.10;;;3.92;;
12118;SDS011;6123;48.864;9.200;2022-11-15T08:56:38;4.10;;;3.70;;
12118;SDS011;6123;48.864;9.200;2022-11-15T08:59:06;4.38;;;3.97;;
12118;SDS011;6123;48.864;9.200;2022-11-15T09:01:32;4.32;;;3.88;;
12118;SDS011;6123;48.864;9.200;2022-11-15T09:03:58;4.43;;;4.03;;
12118;SDS011;6123;48.864;9.200;2022-11-15T09:06:23;4.93;;;3.85;;
12118;SDS011;6123;48.864;9.200;2022-11-15T09:08:51;3.72;;;3.42;;
12118;SDS011;6123;48.864;9.200;2022-11-15T09:11:16;5.45;;;3.95;;
12118;SDS011;6123;48.864;9.200;2022-11-15T09:13:45;3.78;;;3.47;;
12118;SDS011;6123;48.864;9.200;2022-11-15T09:16:10;4.20;;;3.80;;
12118;SDS011;6123;48.864;9.200;2022-11-15T09:18:40;6.38;;;3.72;;
12118;SDS011;6123;48.864;9.200;2022-11-15T09:21:07;4.10;;;3.58;;
12118;SDS011;6123;48.864;9.200;2022-11-15T09:23:33;4.75;;;3.42;;
12118;SDS011;6123;48.864;9.200;2022-11-15T09:25:59;4.72;;;3.78;;
12118;SDS011;6123;48.864;9.200;2022-11-15T09:28:29;5.55;;;3.67;;
12118;SDS011;6123;48.864;9.200;2022-11-15T09:31:00;4.15;;;3.75;;
12118;SDS011;6123;48.864;9.200;2022-11-15T09:33:27;5.22;;;3.38;;
12118;SDS011;6123;48.864;9.200;2022-11-15T09:35:53;6.55;;;3.75;;
12118;SDS011;6123;48.864;9.200;2022-11-15T09:38:19;4.95;;;4.00;;
12118;SDS011;6123;48.864;9.200;2022-11-15T09:40:48;5.32;;;3.65;;
12118;SDS011;6123;48.864;9.200;2022-11-15T09:49:20;5.53;;;3.35;;
12118;SDS011;6123;48.864;9.200;2022-11-15T09:51:47;3.97;;;3.40;;
12118;SDS011;6123;48.864;9.200;2022-11-15T10:05:10;4.15;;;3.35;;
12118;SDS011;6123;48.864;9.200;2022-11-15T10:07:51;3.95;;;2.90;;
12118;SDS011;6123;48.864;9.200;2022-11-15T10:13:18;3.75;;;3.30;;
12118;SDS011;6123;48.864;9.200;2022-11-15T10:15:49;3.53;;;2.72;;
12118;SDS011;6123;48.864;9.200;2022-11-15T10:18:32;5.70;;;3.05;;
12118;SDS011;6123;48.864;9.200;2022-11-15T10:21:02;4.25;;;3.08;;
12118;SDS011;6123;48.864;9.200;2022-11-15T10:23:40;4.55;;;3.20;;
12118;SDS011;6123;48.864;9.200;2022-11-15T10:26:07;3.78;;;3.15;;
12118;SDS011;6123;48.864;9.200;2022-11-15T10:28:36;4.38;;;3.35;;
12118;SDS011;6123;48.864;9.200;2022-11-15T10:31:02;3.90;;;2.85;;
12118;SDS011;6123;48.864;9.200;2022-11-15T10:33:34;4.63;;;3.45;;
12118;SDS011;6123;48.864;9.200;2022-11-15T10:36:20;4.05;;;3.20;;
12118;SDS011;6123;48.864;9.200;2022-11-15T10:46:32;5.75;;;3.30;;
12118;SDS011;6123;48.864;9.200;2022-11-15T10:49:19;4.68;;;3.33;;
12118;SDS011;6123;48.864;9.200;2022-11-15T10:54:18;3.03;;;2.83;;
12118;SDS011;6123;48.864;9.200;2022-11-15T10:56:53;4.15;;;3.63;;
12118;SDS011;6123;48.864;9.200;2022-11-15T10:59:23;3.15;;;2.85;;
12118;SDS011;6123;48.864;9.200;2022-11-15T11:01:57;4.45;;;2.75;;
12118;SDS011;6123;48.864;9.200;2022-11-15T11:04:25;4.00;;;3.03;;
12118;SDS011;6123;48.864;9.200;2022-11-15T11:06:57;4.07;;;2.90;;
12118;SDS011;6123;48.864;9.200;2022-11-15T11:09:37;3.00;;;2.78;;
12118;SDS011;6123;48.864;9.200;2022-11-15T11:12:05;3.40;;;3.10;;
12118;SDS011;6123;48.864;9.200;2022-11-15T11:14:35;3.90;;;2.95;;
12118;SDS011;6123;48.864;9.200;2022-11-15T11:22:36;3.53;;;2.72;;
12118;SDS011;6123;48.864;9.200;2022-11-15T11:33:13;6.15;;;3.03;;
12118;SDS011;6123;48.864;9.200;2022-11-15T11:49:09;6.30;;;3.20;;
12118;SDS011;6123;48.864;9.200;2022-11-15T11:51:41;5.97;;;3.53;;
12118;SDS011;6123;48.864;9.200;2022-11-15T11:54:19;3.78;;;3.45;;
12118;SDS011;6123;48.864;9.200;2022-11-15T12:00:13;5.22;;;3.55;;
12118;SDS011;6123;48.864;9.200;2022-11-15T12:02:48;5.80;;;3.15;;
12118;SDS011;6123;48.864;9.200;2022-11-15T12:10:50;3.05;;;2.63;;
12118;SDS011;6123;48.864;9.200;2022-11-15T12:13:24;4.63;;;3.10;;
12118;SDS011;6123;48.864;9.200;2022-11-15T12:18:29;2.88;;;2.50;;
12118;SDS011;6123;48.864;9.200;2022-11-15T12:20:56;3.67;;;2.85;;
12118;SDS011;6123;48.864;9.200;2022-11-15T12:23:43;3.95;;;2.63;;
12118;SDS011;6123;48.864;9.200;2022-11-15T12:26:19;3.15;;;2.40;;
12118;SDS011;6123;48.864;9.200;2022-11-15T12:28:57;2.90;;;2.58;;
12118;SDS011;6123;48.864;9.200;2022-11-15T12:31:36;3.58;;;2.80;;
12118;SDS011;6123;48.864;9.200;2022-11-15T12:34:13;4.00;;;2.65;;
12118;SDS011;6123;48.864;9.200;2022-11-15T12:36:45;4.68;;;3.50;;
12118;SDS011;6123;48.864;9.200;2022-11-15T12:39:12;3.88;;;2.83;;
12118;SDS011;6123;48.864;9.200;2022-11-15T12:41:39;3.13;;;2.83;;
12118;SDS011;6123;48.864;9.200;2022-11-15T12:44:10;5.85;;;3.05;;
12118;SDS011;6123;48.864;9.200;2022-11-15T13:02:20;5.95;;;3.00;;
12118;SDS011;6123;48.864;9.200;2022-11-15T13:04:51;4.20;;;2.60;;
12118;SDS011;6123;48.864;9.200;2022-11-15T13:08:03;3.78;;;2.65;;
12118;SDS011;6123;48.864;9.200;2022-11-15T13:20:18;3.35;;;3.05;;
12118;SDS011;6123;48.864;9.200;2022-11-15T13:30:58;4.28;;;3.10;;
12118;SDS011;6123;48.864;9.200;2022-11-15T13:33:29;2.80;;;2.60;;
12118;SDS011;6123;48.864;9.200;2022-11-15T13:35:58;2.63;;;2.42;;
12118;SDS011;6123;48.864;9.200;2022-11-15T13:40:58;3.28;;;2.50;;
12118;SDS011;6123;48.864;9.200;2022-11-15T13:46:06;3.75;;;2.70;;
12118;SDS011;6123;48.864;9.200;2022-11-15T13:48:38;3.95;;;2.40;;
12118;SDS011;6123;48.864;9.200;2022-11-15T13:51:06;4.05;;;2.80;;
12118;SDS011;6123;48.864;9.200;2022-11-15T13:53:48;4.72;;;2.40;;
12118;SDS011;6123;48.864;9.200;2022-11-15T13:56:23;3.28;;;2.40;;
12118;SDS011;6123;48.864;9.200;2022-11-15T13:58:51;3.15;;;2.70;;
12118;SDS011;6123;48.864;9.200;2022-11-15T14:01:19;3.63;;;2.70;;
12118;SDS011;6123;48.864;9.200;2022-11-15T14:03:49;4.70;;;3.03;;
12118;SDS011;6123;48.864;9.200;2022-11-15T14:06:21;2.92;;;2.70;;
12118;SDS011;6123;48.864;9.200;2022-11-15T14:08:59;3.17;;;2.47;;
12118;SDS011;6123;48.864;9.200;2022-11-15T14:11:28;4.00;;;2.72;;
12118;SDS011;6123;48.864;9.200;2022-11-15T14:16:43;5.00;;;3.15;;
12118;SDS011;6123;48.864;9.200;2022-11-15T14:24:41;2.90;;;2.47;;
12118;SDS011;6123;48.864;9.200;2022-11-15T14:27:25;3.40;;;3.10;;
12118;SDS011;6123;48.864;9.200;2022-11-15T14:29:53;3.80;;;3.33;;
12118;SDS011;6123;48.864;9.200;2022-11-15T14:32:20;4.00;;;2.97;;
12118;SDS011;6123;48.864;9.200;2022-11-15T14:34:49;3.95;;;2.80;;
12118;SDS011;6123;48.864;9.200;2022-11-15T14:39:53;4.15;;;3.42;;
12118;SDS011;6123;48.864;9.200;2022-11-15T14:42:20;3.50;;;3.20;;
12118;SDS011;6123;48.864;9.200;2022-11-15T14:44:47;3.33;;;3.03;;
12118;SDS011;6123;48.864;9.200;2022-11-15T14:47:13;3.83;;;2.83;;
12118;SDS011;6123;48.864;9.200;2022-11-15T14:49:42;3.97;;;3.08;;
12118;SDS011;6123;48.864;9.200;2022-11-15T14:54:50;3.53;;;3.22;;
12118;SDS011;6123;48.864;9.200;2022-11-15T14:57:18;7.13;;;3.33;;
12118;SDS011;6123;48.864;9.200;2022-11-15T14:59:46;8.23;;;3.10;;
12118;SDS011;6123;48.864;9.200;2022-11-15T15:02:16;8.45;;;3.65;;
12118;SDS011;6123;48.864;9.200;2022-11-15T15:04:44;4.53;;;3.38;;
12118;SDS011;6123;48.864;9.200;2022-11-15T15:07:10;5.15;;;3.65;;
12118;SDS011;6123;48.864;9.200;2022-11-15T15:09:36;5.38;;;3.90;;
12118;SDS011;6123;48.864;9.200;2022-11-15T15:12:02;3.20;;;2.78;;
12118;SDS011;6123;48.864;9.200;2022-11-15T15:14:29;4.15;;;3.22;;
12118;SDS011;6123;48.864;9.200;2022-11-15T15:16:54;5.15;;;3.40;;
12118;SDS011;6123;48.864;9.200;2022-11-15T15:19:20;5.40;;;3.47;;
12118;SDS011;6123;48.864;9.200;2022-11-15T15:21:47;4.93;;;3.80;;
12118;SDS011;6123;48.864;9.200;2022-11-15T15:24:15;4.80;;;4.28;;
12118;SDS011;6123;48.864;9.200;2022-11-15T15:26:41;6.35;;;4.20;;
12118;SDS011;6123;48.864;9.200;2022-11-15T15:29:08;4.35;;;3.95;;
12118;SDS011;6123;48.864;9.200;2022-11-15T15:31:34;5.13;;;4.22;;
12118;SDS011;6123;48.864;9.200;2022-11-15T15:34:00;5.65;;;3.85;;
12118;SDS011;6123;48.864;9.200;2022-11-15T15:36:26;8.75;;;5.55;;
12118;SDS011;6123;48.864;9.200;2022-11-15T15:38:51;6.78;;;5.03;;
12118;SDS011;6123;48.864;9.200;2022-11-15T15:41:22;7.13;;;4.60;;
12118;SDS011;6123;48.864;9.200;2022-11-15T15:43:48;9.27;;;5.28;;
12118;SDS011;6123;48.864;9.200;2022-11-15T15:46:15;6.10;;;5.35;;
12118;SDS011;6123;48.864;9.200;2022-11-15T15:48:42;7.65;;;5.53;;
12118;SDS011;6123;48.864;9.200;2022-11-15T15:51:08;9.55;;;5.60;;
12118;SDS011;6123;48.864;9.200;2022-11-15T15:53:34;6.85;;;5.88;;
12118;SDS011;6123;48.864;9.200;2022-11-15T15:56:01;7.70;;;5.80;;
12118;SDS011;6123;48.864;9.200;2022-11-15T15:58:32;8.90;;;5.43;;
12118;SDS011;6123;48.864;9.200;2022-11-15T16:00:58;10.65;;;6.30;;
12118;SDS011;6123;48.864;9.200;2022-11-15T16:03:24;8.45;;;6.03;;
12118;SDS011;6123;48.864;9.200;2022-11-15T16:05:50;6.38;;;5.18;;
12118;SDS011;6123;48.864;9.200;2022-11-15T16:08:22;9.68;;;6.00;;
12118;SDS011;6123;48.864;9.200;2022-11-15T16:10:49;7.65;;;6.00;;
12118;SDS011;6123;48.864;9.200;2022-11-15T16:13:15;6.93;;;5.53;;
12118;SDS011;6123;48.864;9.200;2022-11-15T16:15:42;5.88;;;5.28;;
12118;SDS011;6123;48.864;9.200;2022-11-15T16:18:12;7.95;;;5.43;;
12118;SDS011;6123;48.864;9.200;2022-11-15T16:20:45;5.90;;;5.07;;
12118;SDS011;6123;48.864;9.200;2022-11-15T16:23:15;5.47;;;4.97;;
12118;SDS011;6123;48.864;9.200;2022-11-15T16:25:49;6.22;;;4.88;;
12118;SDS011;6123;48.864;9.200;2022-11-15T16:28:21;8.13;;;5.28;;
12118;SDS011;6123;48.864;9.200;2022-11-15T16:30:58;6.13;;;5.57;;
12118;SDS011;6123;48.864;9.200;2022-11-15T16:33:31;5.30;;;4.45;;
12118;SDS011;6123;48.864;9.200;2022-11-15T16:35:57;6.53;;;4.95;;
12118;SDS011;6123;48.864;9.200;2022-11-15T16:38:22;5.68;;;4.82;;
12118;SDS011;6123;48.864;9.200;2022-11-15T16:40:48;4.93;;;4.43;;
12118;SDS011;6123;48.864;9.200;2022-11-15T16:43:14;5.32;;;4.57;;
12118;SDS011;6123;48.864;9.200;2022-11-15T16:45:40;5.38;;;4.90;;
12118;SDS011;6123;48.864;9.200;2022-11-15T16:48:15;5.05;;;4.55;;
12118;SDS011;6123;48.864;9.200;2022-11-15T16:50:49;6.30;;;4.28;;
12118;SDS011;6123;48.864;9.200;2022-11-15T16:53:15;5.53;;;4.78;;
12118;SDS011;6123;48.864;9.200;2022-11-15T16:55:41;9.13;;;5.50;;
12118;SDS011;6123;48.864;9.200;2022-11-15T16:58:07;6.10;;;5.50;;
12118;SDS011;6123;48.864;9.200;2022-11-15T17:00:33;8.40;;;5.25;;
12118;SDS011;6123;48.864;9.200;2022-11-15T17:02:59;7.32;;;5.47;;
12118;SDS011;6123;48.864;9.200;2022-11-15T17:05:24;6.65;;;5.65;;
12118;SDS011;6123;48.864;9.200;2022-11-15T17:07:53;7.45;;;5.60;;
12118;SDS011;6123;48.864;9.200;2022-11-15T17:10:20;6.45;;;5.63;;
12118;SDS011;6123;48.864;9.200;2022-11-15T17:12:47;9.27;;;8.38;;
12118;SDS011;6123;48.864;9.200;2022-11-15T17:15:16;7.45;;;6.68;;
12118;SDS011;6123;48.864;9.200;2022-11-15T17:17:45;8.13;;;6.30;;
12118;SDS011;6123;48.864;9.200;2022-11-15T17:20:20;7.43;;;6.03;;
12118;SDS011;6123;48.864;9.200;2022-11-15T17:22:46;6.38;;;5.53;;
12118;SDS011;6123;48.864;9.200;2022-11-15T17:25:12;7.25;;;5.93;;
12118;SDS011;6123;48.864;9.200;2022-11-15T17:27:38;6.63;;;5.93;;
12118;SDS011;6123;48.864;9.200;2022-11-15T17:30:05;9.18;;;5.82;;
12118;SDS011;6123;48.864;9.200;2022-11-15T17:32:31;6.30;;;5.70;;
12118;SDS011;6123;48.864;9.200;2022-11-15T17:34:59;6.70;;;5.65;;
12118;SDS011;6123;48.864;9.200;2022-11-15T17:37:25;6.70;;;5.65;;
12118;SDS011;6123;48.864;9.200;2022-11-15T17:39:52;6.70;;;5.50;;
12118;SDS011;6123;48.864;9.200;2022-11-15T17:42:18;7.50;;;6.03;;
12118;SDS011;6123;48.864;9.200;2022-11-15T17:44:43;7.35;;;5.90;;
12118;SDS011;6123;48.864;9.200;2022-11-15T17:47:09;6.38;;;5.57;;
12118;SDS011;6123;48.864;9.200;2022-11-15T17:49:35;6.18;;;5.45;;